createdAt,value
2023-01-29T03:54:01.190Z,100161.90
2023-01-29T03:56:42.378Z,100160.80
2023-01-29T03:59:46.350Z,100163.67
2023-01-29T04:03:00.883Z,100161.48
2023-01-29T04:05:31.635Z,100159.36
2023-01-29T04:08:13.085Z,100161.11
2023-01-29T04:10:41.986Z,100157.98
2023-01-29T04:13:11.807Z,100152.49
2023-01-29T04:15:46.376Z,100152.13
2023-01-29T04:18:14.385Z,100150.00
2023-01-29T04:21:01.148Z,100152.95
2023-01-29T04:23:30.020Z,100150.02
2023-01-29T04:26:21.827Z,100149.52
2023-01-29T04:29:12.158Z,100149.71
2023-01-29T04:32:03.869Z,100152.05
2023-01-29T04:34:44.050Z,100153.70
2023-01-29T04:37:44.312Z,100152.34
2023-01-29T04:40:20.360Z,100156.14
2023-01-29T04:43:06.663Z,100149.17
2023-01-29T04:45:45.183Z,100155.41
2023-01-29T04:48:32.229Z,100155.66
2023-01-29T04:51:09.862Z,100161.35
2023-01-29T04:54:00.455Z,100157.35
2023-01-29T04:56:36.365Z,100156.42
2023-01-29T04:59:07.145Z,100154.72
2023-01-29T05:01:35.853Z,100157.54
2023-01-29T05:04:06.899Z,100158.21
2023-01-29T05:06:35.199Z,100157.60
2023-01-29T05:09:04.441Z,100157.16
2023-01-29T05:11:32.874Z,100158.45
2023-01-29T05:14:02.881Z,100157.48
2023-01-29T05:16:41.918Z,100160.33
2023-01-29T05:19:11.439Z,100168.54
2023-01-29T05:21:41.100Z,100170.34
2023-01-29T05:24:25.660Z,100175.02
2023-01-29T05:27:16.544Z,100177.90
2023-01-29T05:29:47.905Z,100174.35
2023-01-29T05:32:16.085Z,100176.16
2023-01-29T05:34:44.091Z,100174.06
2023-01-29T05:37:12.358Z,100173.00
2023-01-29T05:39:40.244Z,100171.92
2023-01-29T05:42:08.154Z,100167.41
2023-01-29T05:44:37.077Z,100167.19
2023-01-29T05:47:05.199Z,100175.72
2023-01-29T05:49:33.243Z,100177.56
2023-01-29T05:52:01.293Z,100179.45
2023-01-29T05:54:29.830Z,100177.19
2023-01-29T05:56:57.784Z,100175.40
2023-01-29T05:59:25.975Z,100176.42
2023-01-29T06:01:54.138Z,100172.95
2023-01-29T06:04:22.158Z,100168.33
2023-01-29T06:06:50.253Z,100167.98
2023-01-29T06:09:18.734Z,100169.55
2023-01-29T06:11:46.875Z,100166.41
2023-01-29T06:14:15.292Z,100164.09
2023-01-29T06:16:43.288Z,100165.25
2023-01-29T06:19:11.303Z,100167.02
2023-01-29T06:21:39.508Z,100166.41
2023-01-29T06:24:08.354Z,100167.05
2023-01-29T06:26:36.452Z,100172.77
2023-01-29T06:29:04.905Z,100177.95
2023-01-29T06:31:38.764Z,100179.03
2023-01-29T06:34:10.174Z,100175.85
2023-01-29T06:36:38.081Z,100180.30
2023-01-29T06:39:06.513Z,100181.55
2023-01-29T06:41:35.303Z,100184.59
2023-01-29T06:44:03.282Z,100180.41
2023-01-29T06:46:33.100Z,100178.53
2023-01-29T06:49:01.375Z,100177.77
2023-01-29T06:51:30.528Z,100176.95
2023-01-29T06:53:58.625Z,100175.67
2023-01-29T06:56:26.699Z,100171.11
2023-01-29T06:58:54.789Z,100171.45
2023-01-29T07:01:35.003Z,100174.36
2023-01-29T07:04:04.216Z,100175.73
2023-01-29T07:06:33.627Z,100173.94
2023-01-29T07:09:02.820Z,100175.48
2023-01-29T07:11:37.994Z,100175.92
2023-01-29T07:14:06.174Z,100171.70
2023-01-29T07:16:34.216Z,100175.35
2023-01-29T07:19:02.356Z,100172.20
2023-01-29T07:21:30.381Z,100173.38
2023-01-29T07:23:58.343Z,100175.17
2023-01-29T07:26:26.489Z,100178.69
2023-01-29T07:28:54.507Z,100175.34
2023-01-29T07:31:23.245Z,100176.57
2023-01-29T07:33:52.968Z,100174.89
2023-01-29T07:36:21.122Z,100176.32
2023-01-29T07:38:50.762Z,100175.34
2023-01-29T07:41:18.875Z,100176.72
2023-01-29T07:43:47.604Z,100174.39
2023-01-29T12:20:41.349Z,100014.85
2023-01-29T12:23:21.527Z,100008.59
2023-01-29T12:26:06.240Z,100011.55
2023-01-29T12:28:40.323Z,100010.88
2023-01-29T12:31:48.975Z,100010.17
2023-01-29T12:34:45.253Z,100007.60
2023-01-29T12:37:24.519Z,100011.02
2023-01-29T12:39:52.473Z,100010.02
2023-01-29T12:42:23.860Z,100007.98
2023-01-29T12:44:53.072Z,100007.15
2023-01-29T12:47:24.819Z,100007.30
2023-01-29T12:49:55.586Z,100003.34
2023-01-29T12:52:47.930Z,99999.21
2023-01-29T12:55:28.055Z,100002.50
2023-01-29T12:57:57.621Z,99998.03
2023-01-29T13:00:31.804Z,99998.55
2023-01-29T13:03:19.977Z,99997.88
2023-01-29T13:05:49.081Z,99995.84
2023-01-29T13:08:19.670Z,99990.52
2023-01-29T13:10:49.985Z,99989.82
2023-01-29T13:13:36.759Z,99993.23
2023-01-29T13:16:07.512Z,99991.65
2023-01-29T13:18:46.870Z,99994.23
2023-01-29T13:21:42.153Z,99990.35
2023-01-29T13:24:13.095Z,99988.47
2023-01-29T13:26:41.192Z,99996.04
2023-01-29T13:29:23.958Z,99994.31
2023-01-29T13:31:53.027Z,99993.29
2023-01-29T13:34:23.595Z,99992.80
2023-01-29T13:36:56.311Z,99988.69
2023-01-29T13:39:29.649Z,99983.70
2023-01-29T13:41:59.257Z,99984.73
2023-01-29T13:44:34.889Z,99987.45
2023-01-29T13:47:20.399Z,99991.92
2023-01-29T13:50:11.213Z,99993.81
2023-01-29T13:52:55.404Z,99993.83
2023-01-29T13:55:33.835Z,99995.38
2023-01-29T13:58:05.407Z,99996.41
2023-01-29T14:00:33.550Z,99991.60
2023-01-29T14:03:01.741Z,99988.52
2023-01-29T14:05:29.697Z,99983.36
2023-01-29T14:08:13.809Z,99983.89
2023-01-29T14:10:42.738Z,99980.97
2023-01-29T14:13:18.300Z,99978.05
2023-01-29T14:15:58.930Z,99974.79
2023-01-29T14:18:34.401Z,99973.75
2023-01-29T14:21:20.720Z,99974.63
2023-01-29T14:23:53.151Z,99973.59
2023-01-29T14:26:21.357Z,99975.83
2023-01-29T14:29:00.462Z,99976.16
2023-01-29T14:31:51.854Z,99977.38
2023-01-29T14:34:29.127Z,99972.91
2023-01-29T14:37:02.588Z,99977.38
2023-01-29T14:39:38.371Z,99977.90
2023-01-29T14:42:25.072Z,99979.80
2023-01-29T14:44:54.708Z,99982.02
2023-01-29T14:47:25.765Z,99986.15
2023-01-29T14:49:57.286Z,99986.84
2023-01-29T14:52:35.888Z,99985.27
2023-01-29T14:55:06.984Z,99989.77
2023-01-29T14:57:35.730Z,99988.04
2023-01-29T15:00:05.888Z,99990.45
2023-01-29T15:02:46.261Z,99989.77
2023-01-29T15:05:18.671Z,99989.76
2023-01-29T15:08:30.042Z,99988.90
2023-01-29T15:11:19.581Z,99993.36
2023-01-29T15:13:50.438Z,99995.27
2023-01-29T15:16:21.151Z,99994.05
2023-01-29T15:18:49.319Z,99988.71
2023-01-29T15:21:18.364Z,99990.44
2023-01-29T15:23:48.616Z,99988.71
2023-01-29T15:26:22.447Z,99993.20
2023-01-29T15:29:05.125Z,99994.23
2023-01-29T15:31:34.274Z,99992.68
2023-01-29T15:34:06.568Z,99993.71
2023-01-29T15:36:34.569Z,99994.92
2023-01-29T15:39:12.073Z,99997.32
2023-01-29T15:41:40.339Z,99994.57
2023-01-29T15:44:16.321Z,99998.69
2023-01-29T15:46:46.128Z,99999.72
2023-01-29T20:11:51.769Z,99936.17
2023-01-29T20:14:20.049Z,99933.98
2023-01-29T20:16:48.029Z,99931.42
2023-01-29T20:19:16.138Z,99937.79
2023-01-29T20:21:53.611Z,99937.80
2023-01-29T20:24:21.716Z,99940.91
2023-01-29T20:26:50.269Z,99942.48
2023-01-29T20:29:18.616Z,99944.50
2023-01-29T20:31:46.942Z,99944.16
2023-01-29T20:34:17.432Z,99948.23
2023-01-29T20:36:45.918Z,99948.92
2023-01-29T20:39:14.068Z,99949.10
2023-01-29T20:41:43.208Z,99950.47
2023-01-29T20:44:11.183Z,99948.75
2023-01-29T20:46:39.184Z,99947.04
2023-01-29T20:49:11.945Z,99943.44
2023-01-29T20:51:39.918Z,99944.30
2023-01-29T20:54:08.086Z,99944.77
2023-01-29T20:56:43.807Z,99945.46
2023-01-29T20:59:14.304Z,99942.23
2023-01-29T21:01:43.655Z,99943.95
2023-01-29T21:04:11.749Z,99943.44
2023-01-29T21:06:39.624Z,99941.38
2023-01-29T21:09:08.264Z,99940.73
2023-01-29T21:11:37.044Z,99938.46
2023-01-29T21:14:05.744Z,99938.29
2023-01-29T21:16:34.087Z,99932.97
2023-01-29T21:19:02.026Z,99934.52
2023-01-29T21:21:30.331Z,99935.89
2023-01-29T21:23:58.527Z,99928.51
2023-01-29T21:26:26.508Z,99924.24
2023-01-29T21:28:54.692Z,99920.48
2023-01-29T21:31:22.984Z,99917.75
2023-01-29T21:33:51.196Z,99922.39
2023-01-29T21:36:19.257Z,99917.23
2023-01-29T21:38:47.564Z,99922.70
2023-01-29T21:41:15.535Z,99926.48
2023-01-29T21:43:44.547Z,99926.14
2023-01-29T21:46:12.641Z,99923.23
2023-01-29T21:48:40.854Z,99917.23
2023-01-29T21:51:08.838Z,99919.80
2023-01-29T21:53:37.342Z,99918.93
2023-01-29T21:56:06.448Z,99913.80
2023-01-29T21:58:34.724Z,99915.69
2023-01-29T22:01:38.142Z,99911.92
2023-01-29T22:04:08.720Z,99904.87
2023-01-29T22:06:36.865Z,99904.66
2023-01-29T22:09:07.506Z,99906.35
2023-01-29T22:11:36.328Z,99906.89
2023-01-29T22:14:05.335Z,99903.46
2023-01-29T22:16:33.566Z,99904.64
2023-01-29T22:19:02.583Z,99903.09
2023-01-29T22:21:30.641Z,99899.67
2023-01-29T22:23:58.582Z,99892.97
2023-01-29T22:26:26.679Z,99886.45
2023-01-29T22:28:54.558Z,99884.40
2023-01-29T22:31:22.452Z,99884.56
2023-01-29T22:33:50.661Z,99883.89
2023-01-29T22:36:19.569Z,99880.08
2023-01-29T22:38:47.669Z,99879.55
2023-01-29T22:41:16.010Z,99879.20
2023-01-29T22:43:44.160Z,99881.45
2023-01-29T22:46:12.212Z,99878.17
2023-01-29T22:48:42.106Z,99874.40
2023-01-29T22:51:10.454Z,99879.89
2023-01-29T22:53:49.005Z,99877.17
2023-01-29T22:56:18.012Z,99871.13
2023-01-29T22:58:50.154Z,99866.17
2023-01-29T23:01:20.155Z,99863.77
2023-01-29T23:03:48.075Z,99856.55
2023-01-29T23:06:16.717Z,99850.57
2023-01-29T23:08:44.907Z,99856.41
2023-01-29T23:11:15.185Z,99851.09
2023-01-29T23:13:53.780Z,99845.27
2023-01-29T23:16:23.466Z,99844.60
2023-01-29T23:18:53.661Z,99842.71
2023-01-29T23:21:25.275Z,99833.63
2023-01-29T23:23:55.569Z,99833.14
2023-01-29T23:26:42.115Z,99829.36
2023-01-29T23:29:10.144Z,99824.89
2023-01-29T23:31:38.689Z,99824.21
2023-01-29T23:34:06.748Z,99820.27
2023-01-29T23:36:34.931Z,99820.41
2023-01-29T23:39:02.940Z,99814.94
2023-01-29T23:41:31.751Z,99806.69
